sensor_id;sensor_type;location;lat;lon;timestamp;pressure;altitude;pressure_sealevel;temperature;humidity
45113;BME280;30873;53.908;27.576;2022-08-01T00:03:54;1012.8;;;21.3;71.4
45113;BME280;30873;53.908;27.576;2022-08-01T00:08:54;1012.7;;;21.3;71.3
45113;BME280;30873;53.908;27.576;2022-08-01T00:13:54;1012.7;;;21.3;71.2
45113;BME280;30873;53.908;27.576;2022-08-01T00:18:54;1012.7;;;21.3;71
45113;BME280;30873;53.908;27.576;2022-08-01T00:23:54;1012.7;;;21.3;70.8
45113;BME280;30873;53.908;27.576;2022-08-01T00:28:54;1012.7;;;21.3;70.8
45113;BME280;30873;53.908;27.576;2022-08-01T00:33:54;1012.6;;;21.2;70.7
45113;BME280;30873;53.908;27.576;2022-08-01T00:38:54;1012.6;;;21.2;70.6
45113;BME280;30873;53.908;27.576;2022-08-01T00:43:54;1012.5;;;21.2;70.5
45113;BME280;30873;53.908;27.576;2022-08-01T00:48:54;1012.5;;;21.2;70.4
45113;BME280;30873;53.908;27.576;2022-08-01T00:53:54;1012.5;;;21.3;70.2
45113;BME280;30873;53.908;27.576;2022-08-01T00:58:54;1012.4;;;21.3;69.9
45113;BME280;30873;53.908;27.576;2022-08-01T01:03:54;1012.4;;;21.3;69.6
45113;BME280;30873;53.908;27.576;2022-08-01T01:13:57;1012.3;;;21.4;68.8
45113;BME280;30873;53.908;27.576;2022-08-01T01:18:55;1012.3;;;21.3;68.7
45113;BME280;30873;53.908;27.576;2022-08-01T01:24:13;1012.3;;;21.3;68.4
45113;BME280;30873;53.908;27.576;2022-08-01T01:29:27;1012.3;;;21.4;68.1
45113;BME280;30873;53.908;27.576;2022-08-01T01:33:54;1012.3;;;21.4;67.8
45113;BME280;30873;53.908;27.576;2022-08-01T01:38:54;1012.2;;;21.4;67.6
45113;BME280;30873;53.908;27.576;2022-08-01T01:43:54;1012.3;;;21.3;67.2
45113;BME280;30873;53.908;27.576;2022-08-01T01:48:54;1012.2;;;21.3;67
45113;BME280;30873;53.908;27.576;2022-08-01T01:53:54;1012.2;;;21.3;67
45113;BME280;30873;53.908;27.576;2022-08-01T01:58:55;1012.2;;;21.3;66.8
45113;BME280;30873;53.908;27.576;2022-08-01T02:03:54;1012.2;;;21.3;66.6
45113;BME280;30873;53.908;27.576;2022-08-01T02:08:54;1012.1;;;21.3;66.5
45113;BME280;30873;53.908;27.576;2022-08-01T02:13:58;1012.1;;;21.3;66.4
45113;BME280;30873;53.908;27.576;2022-08-01T02:18:54;1012.1;;;21.3;66.3
45113;BME280;30873;53.908;27.576;2022-08-01T02:23:54;1012.1;;;21.3;66.2
45113;BME280;30873;53.908;27.576;2022-08-01T02:28:56;1012.1;;;21.3;66.1
45113;BME280;30873;53.908;27.576;2022-08-01T02:33:57;1012.1;;;21.3;66.1
45113;BME280;30873;53.908;27.576;2022-08-01T02:38:54;1012.1;;;21.3;66
45113;BME280;30873;53.908;27.576;2022-08-01T02:43:56;1012.1;;;21.2;66
45113;BME280;30873;53.908;27.576;2022-08-01T02:48:54;1012.2;;;21.3;66.1
45113;BME280;30873;53.908;27.576;2022-08-01T02:53:54;1012.2;;;21.3;65.9
45113;BME280;30873;53.908;27.576;2022-08-01T02:58:54;1012.1;;;21.3;65.9
45113;BME280;30873;53.908;27.576;2022-08-01T03:03:54;1012.1;;;21.3;65.8
45113;BME280;30873;53.908;27.576;2022-08-01T03:08:54;1012.1;;;21.3;65.7
45113;BME280;30873;53.908;27.576;2022-08-01T03:13:54;1012.1;;;21.3;65.7
45113;BME280;30873;53.908;27.576;2022-08-01T03:18:54;1012.1;;;21.2;65.9
45113;BME280;30873;53.908;27.576;2022-08-01T03:23:54;1012.1;;;21.3;66
45113;BME280;30873;53.908;27.576;2022-08-01T03:28:55;1012.1;;;21.3;65.9
45113;BME280;30873;53.908;27.576;2022-08-01T03:33:54;1012.1;;;21.3;65.7
45113;BME280;30873;53.908;27.576;2022-08-01T03:38:56;1012.1;;;21.3;65.5
45113;BME280;30873;53.908;27.576;2022-08-01T03:43:56;1012.1;;;21.4;65.5
45113;BME280;30873;53.908;27.576;2022-08-01T03:48:54;1012.1;;;21.4;65.2
45113;BME280;30873;53.908;27.576;2022-08-01T03:53:54;1012.1;;;21.5;64.9
45113;BME280;30873;53.908;27.576;2022-08-01T03:58:54;1012.1;;;21.5;64.8
45113;BME280;30873;53.908;27.576;2022-08-01T04:03:54;1012.1;;;21.6;64.6
45113;BME280;30873;53.908;27.576;2022-08-01T04:08:54;1012.1;;;21.7;64.3
45113;BME280;30873;53.908;27.576;2022-08-01T04:13:54;1012.1;;;21.8;64
45113;BME280;30873;53.908;27.576;2022-08-01T04:18:54;1012;;;21.9;63.5
45113;BME280;30873;53.908;27.576;2022-08-01T04:23:55;1012;;;22;63.4
45113;BME280;30873;53.908;27.576;2022-08-01T04:28:54;1012;;;22.1;63
45113;BME280;30873;53.908;27.576;2022-08-01T04:33:54;1011.9;;;22.2;62.4
45113;BME280;30873;53.908;27.576;2022-08-01T04:38:56;1011.9;;;22.3;62.2
45113;BME280;30873;53.908;27.576;2022-08-01T04:43:54;1012;;;22.4;61.8
45113;BME280;30873;53.908;27.576;2022-08-01T04:48:54;1012;;;22.5;61.3
45113;BME280;30873;53.908;27.576;2022-08-01T04:53:54;1012;;;22.7;61
45113;BME280;30873;53.908;27.576;2022-08-01T04:58:54;1012;;;22.8;60.6
45113;BME280;30873;53.908;27.576;2022-08-01T05:03:54;1012;;;22.8;60.3
45113;BME280;30873;53.908;27.576;2022-08-01T05:08:54;1012;;;22.9;60
45113;BME280;30873;53.908;27.576;2022-08-01T05:13:54;1012;;;23;59.9
45113;BME280;30873;53.908;27.576;2022-08-01T05:18:54;1011.9;;;23.2;59.4
45113;BME280;30873;53.908;27.576;2022-08-01T05:23:54;1011.9;;;23.2;59.4
45113;BME280;30873;53.908;27.576;2022-08-01T05:28:54;1012;;;23.5;59.1
45113;BME280;30873;53.908;27.576;2022-08-01T05:33:54;1012;;;23.8;58.3
45113;BME280;30873;53.908;27.576;2022-08-01T05:38:54;1011.9;;;24.2;57.4
45113;BME280;30873;53.908;27.576;2022-08-01T05:43:54;1012;;;24.3;57.1
45113;BME280;30873;53.908;27.576;2022-08-01T05:48:54;1012;;;24.5;56.7
45113;BME280;30873;53.908;27.576;2022-08-01T05:53:54;1012;;;24.7;55.9
45113;BME280;30873;53.908;27.576;2022-08-01T05:58:54;1011.9;;;25.5;54.6
45113;BME280;30873;53.908;27.576;2022-08-01T06:03:54;1011.9;;;25.9;53.4
45113;BME280;30873;53.908;27.576;2022-08-01T06:08:54;1011.9;;;26.4;52.4
45113;BME280;30873;53.908;27.576;2022-08-01T06:13:54;1011.9;;;26.7;51.6
45113;BME280;30873;53.908;27.576;2022-08-01T06:18:54;1012;;;26.8;51.1
45113;BME280;30873;53.908;27.576;2022-08-01T06:23:54;1011.9;;;26.9;50.7
45113;BME280;30873;53.908;27.576;2022-08-01T06:28:54;1012;;;26.4;51.3
45113;BME280;30873;53.908;27.576;2022-08-01T06:33:54;1012;;;26.2;52
45113;BME280;30873;53.908;27.576;2022-08-01T06:38:54;1012;;;26.3;51.8
45113;BME280;30873;53.908;27.576;2022-08-01T06:43:54;1011.9;;;26.4;51.5
45113;BME280;30873;53.908;27.576;2022-08-01T06:48:54;1011.9;;;26.6;51.1
45113;BME280;30873;53.908;27.576;2022-08-01T06:53:54;1011.9;;;26.8;50.7
45113;BME280;30873;53.908;27.576;2022-08-01T06:58:54;1011.9;;;27.5;49.9
45113;BME280;30873;53.908;27.576;2022-08-01T07:03:54;1011.9;;;27.8;49.3
45113;BME280;30873;53.908;27.576;2022-08-01T07:08:54;1011.8;;;27.9;49.2
45113;BME280;30873;53.908;27.576;2022-08-01T07:13:54;1011.8;;;27.8;49.4
45113;BME280;30873;53.908;27.576;2022-08-01T07:18:54;1011.7;;;27.6;49.8
45113;BME280;30873;53.908;27.576;2022-08-01T07:23:54;1011.7;;;27.6;49.6
45113;BME280;30873;53.908;27.576;2022-08-01T07:28:54;1011.7;;;27.4;49.7
45113;BME280;30873;53.908;27.576;2022-08-01T07:33:54;1011.7;;;27.5;50
45113;BME280;30873;53.908;27.576;2022-08-01T07:38:54;1011.7;;;27.6;50.1
45113;BME280;30873;53.908;27.576;2022-08-01T07:43:54;1011.8;;;27.7;49.5
45113;BME280;30873;53.908;27.576;2022-08-01T07:48:55;1011.7;;;27.6;49.4
45113;BME280;30873;53.908;27.576;2022-08-01T07:53:54;1011.7;;;27.6;49.5
45113;BME280;30873;53.908;27.576;2022-08-01T07:58:54;1011.7;;;27.7;49.1
45113;BME280;30873;53.908;27.576;2022-08-01T08:03:54;1011.7;;;27.9;48.7
45113;BME280;30873;53.908;27.576;2022-08-01T08:08:54;1011.7;;;27.8;48.7
45113;BME280;30873;53.908;27.576;2022-08-01T08:13:54;1011.7;;;27.9;48.2
45113;BME280;30873;53.908;27.576;2022-08-01T08:18:54;1011.6;;;28.1;48
45113;BME280;30873;53.908;27.576;2022-08-01T08:23:54;1011.6;;;28.4;47.3
45113;BME280;30873;53.908;27.576;2022-08-01T08:28:54;1011.6;;;28.8;46.4
45113;BME280;30873;53.908;27.576;2022-08-01T08:33:54;1011.5;;;28.8;46.2
45113;BME280;30873;53.908;27.576;2022-08-01T08:38:54;1011.5;;;29;46.2
45113;BME280;30873;53.908;27.576;2022-08-01T08:43:54;1011.5;;;29.4;45.7
45113;BME280;30873;53.908;27.576;2022-08-01T08:48:55;1011.5;;;29.8;44.8
45113;BME280;30873;53.908;27.576;2022-08-01T08:53:55;1011.5;;;30.3;43.9
45113;BME280;30873;53.908;27.576;2022-08-01T08:58:54;1011.5;;;30.4;43
45113;BME280;30873;53.908;27.576;2022-08-01T09:03:54;1011.4;;;30.8;42.3
45113;BME280;30873;53.908;27.576;2022-08-01T09:08:54;1011.4;;;31.2;41.3
45113;BME280;30873;53.908;27.576;2022-08-01T09:14:25;1011.4;;;31.4;40.9
45113;BME280;30873;53.908;27.576;2022-08-01T09:18:54;1011.4;;;31.6;40.2
45113;BME280;30873;53.908;27.576;2022-08-01T09:23:54;1011.4;;;31.6;39.7
45113;BME280;30873;53.908;27.576;2022-08-01T09:28:54;1011.4;;;31.6;39.4
45113;BME280;30873;53.908;27.576;2022-08-01T09:33:55;1011.4;;;31.8;38.8
45113;BME280;30873;53.908;27.576;2022-08-01T09:38:54;1011.4;;;32.2;38.3
45113;BME280;30873;53.908;27.576;2022-08-01T09:43:54;1011.3;;;33;36.8
45113;BME280;30873;53.908;27.576;2022-08-01T09:48:55;1011.4;;;33.7;35.2
45113;BME280;30873;53.908;27.576;2022-08-01T09:53:54;1011.3;;;33.8;35
45113;BME280;30873;53.908;27.576;2022-08-01T09:58:55;1011.3;;;34;34.7
45113;BME280;30873;53.908;27.576;2022-08-01T10:04:10;1011.3;;;35.1;33.3
45113;BME280;30873;53.908;27.576;2022-08-01T10:08:54;1011.3;;;34.9;33.1
45113;BME280;30873;53.908;27.576;2022-08-01T10:13:54;1011.2;;;34.8;33
45113;BME280;30873;53.908;27.576;2022-08-01T10:18:54;1011.2;;;35.2;32
45113;BME280;30873;53.908;27.576;2022-08-01T10:23:54;1011.2;;;36.1;30.5
45113;BME280;30873;53.908;27.576;2022-08-01T10:28:54;1011.2;;;36.5;29.7
45113;BME280;30873;53.908;27.576;2022-08-01T10:33:54;1011.1;;;37;29
45113;BME280;30873;53.908;27.576;2022-08-01T10:38:54;1011.1;;;36;30.2
45113;BME280;30873;53.908;27.576;2022-08-01T10:43:54;1011.1;;;35.7;30.2
45113;BME280;30873;53.908;27.576;2022-08-01T10:48:55;1011.1;;;35.2;30.7
45113;BME280;30873;53.908;27.576;2022-08-01T10:53:54;1011;;;35.6;30.8
45113;BME280;30873;53.908;27.576;2022-08-01T10:59:00;1011;;;38.2;28.1
45113;BME280;30873;53.908;27.576;2022-08-01T11:03:56;1011;;;38.2;27.1
45113;BME280;30873;53.908;27.576;2022-08-01T11:08:54;1011;;;37.6;27.7
45113;BME280;30873;53.908;27.576;2022-08-01T11:14:02;1011;;;36.5;28.8
45113;BME280;30873;53.908;27.576;2022-08-01T11:18:54;1011;;;35.9;29.4
45113;BME280;30873;53.908;27.576;2022-08-01T11:23:54;1011;;;36.8;28.6
45113;BME280;30873;53.908;27.576;2022-08-01T11:29:25;1011;;;36.1;29.4
45113;BME280;30873;53.908;27.576;2022-08-01T11:33:54;1011;;;34.6;31
45113;BME280;30873;53.908;27.576;2022-08-01T11:44:10;1010.9;;;37.2;28
45113;BME280;30873;53.908;27.576;2022-08-01T11:49:59;1010.9;;;37.5;27.6
45113;BME280;30873;53.908;27.576;2022-08-01T11:53:54;1010.8;;;37;28.2
45113;BME280;30873;53.908;27.576;2022-08-01T11:58:58;1010.9;;;38.1;27.2
45113;BME280;30873;53.908;27.576;2022-08-01T12:03:55;1010.8;;;38.6;26.4
45113;BME280;30873;53.908;27.576;2022-08-01T12:08:54;1010.8;;;39.1;25.6
45113;BME280;30873;53.908;27.576;2022-08-01T12:13:54;1010.7;;;37.4;27.4
45113;BME280;30873;53.908;27.576;2022-08-01T12:18:54;1010.7;;;38.4;26.8
45113;BME280;30873;53.908;27.576;2022-08-01T12:24:01;1010.7;;;40.6;24.2
45113;BME280;30873;53.908;27.576;2022-08-01T12:28:54;1010.6;;;38.7;25.6
45113;BME280;30873;53.908;27.576;2022-08-01T12:33:54;1010.6;;;39.2;25.2
45113;BME280;30873;53.908;27.576;2022-08-01T12:38:54;1010.5;;;41.2;23.2
45113;BME280;30873;53.908;27.576;2022-08-01T12:43:54;1010.4;;;42.4;22.2
45113;BME280;30873;53.908;27.576;2022-08-01T12:48:54;1010.4;;;41.6;22.5
45113;BME280;30873;53.908;27.576;2022-08-01T12:53:54;1010.4;;;39.5;24.1
45113;BME280;30873;53.908;27.576;2022-08-01T12:58:54;1010.4;;;38.7;25.4
45113;BME280;30873;53.908;27.576;2022-08-01T13:04:02;1010.4;;;38.8;25.2
45113;BME280;30873;53.908;27.576;2022-08-01T13:08:54;1010.4;;;40.3;23.8
45113;BME280;30873;53.908;27.576;2022-08-01T13:13:54;1010.3;;;41.2;22.7
45113;BME280;30873;53.908;27.576;2022-08-01T13:18:54;1010.3;;;38.2;25.7
45113;BME280;30873;53.908;27.576;2022-08-01T13:24:10;1010.3;;;36.4;27.7
45113;BME280;30873;53.908;27.576;2022-08-01T13:29:10;1010.2;;;37.3;26.7
45113;BME280;30873;53.908;27.576;2022-08-01T13:33:54;1010.3;;;35.6;28.5
45113;BME280;30873;53.908;27.576;2022-08-01T13:38:54;1010.3;;;34.4;30.3
45113;BME280;30873;53.908;27.576;2022-08-01T13:43:54;1010.3;;;37.5;26.9
45113;BME280;30873;53.908;27.576;2022-08-01T13:48:54;1010.2;;;39.4;24.8
45113;BME280;30873;53.908;27.576;2022-08-01T13:53:54;1010.1;;;41.1;23.1
45113;BME280;30873;53.908;27.576;2022-08-01T13:58:54;1010.1;;;41.5;22.8
45113;BME280;30873;53.908;27.576;2022-08-01T14:03:54;1010.2;;;39.3;24.8
45113;BME280;30873;53.908;27.576;2022-08-01T14:08:54;1010.2;;;40.3;24
45113;BME280;30873;53.908;27.576;2022-08-01T14:13:54;1010.3;;;38.7;25.3
45113;BME280;30873;53.908;27.576;2022-08-01T14:18:54;1010.2;;;38.6;25.4
45113;BME280;30873;53.908;27.576;2022-08-01T14:23:54;1010.2;;;39.1;24.9
45113;BME280;30873;53.908;27.576;2022-08-01T14:28:54;1010.3;;;37.7;26
45113;BME280;30873;53.908;27.576;2022-08-01T14:33:54;1010.3;;;34.5;29.8
45113;BME280;30873;53.908;27.576;2022-08-01T14:38:54;1010.4;;;32.8;32.4
45113;BME280;30873;53.908;27.576;2022-08-01T14:43:54;1010.7;;;31.5;37.3
45113;BME280;30873;53.908;27.576;2022-08-01T14:48:54;1010.9;;;29.6;45.5
45113;BME280;30873;53.908;27.576;2022-08-01T14:53:54;1011;;;28.2;49.9
45113;BME280;30873;53.908;27.576;2022-08-01T14:58:54;1011.6;;;27.8;53
45113;BME280;30873;53.908;27.576;2022-08-01T15:03:54;1011.7;;;27.1;58.1
45113;BME280;30873;53.908;27.576;2022-08-01T15:08:54;1011.5;;;26.6;59.7
45113;BME280;30873;53.908;27.576;2022-08-01T15:13:54;1011.5;;;26.5;61.2
45113;BME280;30873;53.908;27.576;2022-08-01T15:18:54;1011.5;;;26.3;62.3
45113;BME280;30873;53.908;27.576;2022-08-01T15:23:54;1011.5;;;26.1;63.4
45113;BME280;30873;53.908;27.576;2022-08-01T15:28:54;1011.6;;;26;62.5
45113;BME280;30873;53.908;27.576;2022-08-01T15:33:54;1011.7;;;25.8;62.5
45113;BME280;30873;53.908;27.576;2022-08-01T15:38:54;1011.7;;;25.8;61.7
45113;BME280;30873;53.908;27.576;2022-08-01T15:43:54;1011.7;;;26;62.3
45113;BME280;30873;53.908;27.576;2022-08-01T15:48:54;1011.8;;;26;61.3
45113;BME280;30873;53.908;27.576;2022-08-01T15:53:54;1011.9;;;25.9;61.4
45113;BME280;30873;53.908;27.576;2022-08-01T15:58:54;1012;;;25.7;62.6
45113;BME280;30873;53.908;27.576;2022-08-01T16:03:54;1012;;;25.5;64.3
45113;BME280;30873;53.908;27.576;2022-08-01T16:08:54;1012;;;25.2;65.3
45113;BME280;30873;53.908;27.576;2022-08-01T16:13:54;1012;;;24.9;66.3
45113;BME280;30873;53.908;27.576;2022-08-01T16:18:54;1012;;;24.7;67.5
45113;BME280;30873;53.908;27.576;2022-08-01T16:23:54;1012;;;24.5;68.3
45113;BME280;30873;53.908;27.576;2022-08-01T16:28:54;1012;;;24.6;69
45113;BME280;30873;53.908;27.576;2022-08-01T16:33:54;1012.1;;;24.7;69.4
45113;BME280;30873;53.908;27.576;2022-08-01T16:38:54;1012.2;;;24.8;69.6
45113;BME280;30873;53.908;27.576;2022-08-01T16:43:54;1012.3;;;24.9;69.2
45113;BME280;30873;53.908;27.576;2022-08-01T16:48:54;1012.5;;;24.8;69.2
45113;BME280;30873;53.908;27.576;2022-08-01T16:53:54;1012.5;;;24.7;69.2
45113;BME280;30873;53.908;27.576;2022-08-01T16:58:54;1012.4;;;24.5;68.9
45113;BME280;30873;53.908;27.576;2022-08-01T17:03:54;1012.5;;;24.4;68.8
45113;BME280;30873;53.908;27.576;2022-08-01T17:08:54;1012.5;;;24.2;69.2
45113;BME280;30873;53.908;27.576;2022-08-01T17:13:54;1012.5;;;24.1;69.9
45113;BME280;30873;53.908;27.576;2022-08-01T17:18:54;1012.6;;;24.1;70.3
45113;BME280;30873;53.908;27.576;2022-08-01T17:23:54;1012.6;;;24;69.9
45113;BME280;30873;53.908;27.576;2022-08-01T17:28:54;1012.6;;;23.9;69.7
45113;BME280;30873;53.908;27.576;2022-08-01T17:33:54;1012.6;;;23.8;70
45113;BME280;30873;53.908;27.576;2022-08-01T17:38:54;1012.6;;;23.7;70.4
45113;BME280;30873;53.908;27.576;2022-08-01T17:43:54;1012.6;;;23.6;70.9
45113;BME280;30873;53.908;27.576;2022-08-01T17:48:54;1012.6;;;23.5;71.5
45113;BME280;30873;53.908;27.576;2022-08-01T17:53:54;1012.7;;;23.4;71.9
45113;BME280;30873;53.908;27.576;2022-08-01T17:58:54;1012.7;;;23.3;71.8
45113;BME280;30873;53.908;27.576;2022-08-01T18:03:54;1012.8;;;23.2;71.5
45113;BME280;30873;53.908;27.576;2022-08-01T18:08:54;1012.8;;;23.2;71.2
45113;BME280;30873;53.908;27.576;2022-08-01T18:13:54;1012.9;;;23.1;71
45113;BME280;30873;53.908;27.576;2022-08-01T18:18:54;1013;;;23.1;71.3
45113;BME280;30873;53.908;27.576;2022-08-01T18:23:54;1013;;;23.1;71.2
45113;BME280;30873;53.908;27.576;2022-08-01T18:28:54;1013.1;;;23;71.1
45113;BME280;30873;53.908;27.576;2022-08-01T18:33:54;1013.2;;;22.9;71
45113;BME280;30873;53.908;27.576;2022-08-01T18:38:54;1013.1;;;22.8;70.8
45113;BME280;30873;53.908;27.576;2022-08-01T18:43:54;1013.2;;;22.8;70.6
45113;BME280;30873;53.908;27.576;2022-08-01T18:48:54;1013.2;;;22.7;70.6
45113;BME280;30873;53.908;27.576;2022-08-01T18:53:54;1013.2;;;22.8;70.9
45113;BME280;30873;53.908;27.576;2022-08-01T18:58:54;1013.3;;;22.7;70.5
45113;BME280;30873;53.908;27.576;2022-08-01T19:03:54;1013.3;;;22.6;70.6
45113;BME280;30873;53.908;27.576;2022-08-01T19:08:54;1013.3;;;22.6;70.7
45113;BME280;30873;53.908;27.576;2022-08-01T19:13:54;1013.2;;;22.4;71.1
45113;BME280;30873;53.908;27.576;2022-08-01T19:18:54;1013.1;;;22.3;71.9
45113;BME280;30873;53.908;27.576;2022-08-01T19:23:54;1013.1;;;22.2;71.8
45113;BME280;30873;53.908;27.576;2022-08-01T19:28:55;1013.1;;;22.1;71.1
45113;BME280;30873;53.908;27.576;2022-08-01T19:33:54;1013.1;;;22.1;70.4
45113;BME280;30873;53.908;27.576;2022-08-01T19:38:54;1013.1;;;22.1;70.1
45113;BME280;30873;53.908;27.576;2022-08-01T19:43:54;1013.1;;;22.1;69.7
45113;BME280;30873;53.908;27.576;2022-08-01T19:48:54;1013.1;;;22.1;69.9
45113;BME280;30873;53.908;27.576;2022-08-01T19:53:54;1013.2;;;22.1;70.7
45113;BME280;30873;53.908;27.576;2022-08-01T19:58:54;1013.2;;;22.1;70.9
45113;BME280;30873;53.908;27.576;2022-08-01T20:03:54;1013.3;;;22;71
45113;BME280;30873;53.908;27.576;2022-08-01T20:08:54;1013.3;;;21.9;71.3
45113;BME280;30873;53.908;27.576;2022-08-01T20:13:54;1013.3;;;21.9;71.7
45113;BME280;30873;53.908;27.576;2022-08-01T20:18:54;1013.3;;;22;71.4
45113;BME280;30873;53.908;27.576;2022-08-01T20:23:54;1013.3;;;21.8;71.9
45113;BME280;30873;53.908;27.576;2022-08-01T20:28:55;1013.4;;;21.8;72.4
45113;BME280;30873;53.908;27.576;2022-08-01T20:33:54;1013.4;;;21.8;72.7
45113;BME280;30873;53.908;27.576;2022-08-01T20:38:54;1013.4;;;22;72.5
45113;BME280;30873;53.908;27.576;2022-08-01T20:43:55;1013.5;;;22;72.3
45113;BME280;30873;53.908;27.576;2022-08-01T20:48:54;1013.5;;;22;72.1
45113;BME280;30873;53.908;27.576;2022-08-01T20:53:54;1013.6;;;22;72
45113;BME280;30873;53.908;27.576;2022-08-01T20:59:27;1013.6;;;21.9;72.1
45113;BME280;30873;53.908;27.576;2022-08-01T21:03:59;1013.7;;;21.9;72.4
45113;BME280;30873;53.908;27.576;2022-08-01T21:08:54;1013.7;;;21.9;72.5
45113;BME280;30873;53.908;27.576;2022-08-01T21:13:54;1013.7;;;21.9;72.5
45113;BME280;30873;53.908;27.576;2022-08-01T21:18:55;1013.8;;;22;72.3
45113;BME280;30873;53.908;27.576;2022-08-01T21:24:26;1013.8;;;22;72.2
45113;BME280;30873;53.908;27.576;2022-08-01T21:28:54;1013.9;;;22;72.5
45113;BME280;30873;53.908;27.576;2022-08-01T21:33:54;1013.9;;;22;72.4
45113;BME280;30873;53.908;27.576;2022-08-01T21:38:54;1013.9;;;22;72.4
45113;BME280;30873;53.908;27.576;2022-08-01T21:43:54;1014;;;22;72.3
45113;BME280;30873;53.908;27.576;2022-08-01T21:48:54;1013.9;;;22;72.5
45113;BME280;30873;53.908;27.576;2022-08-01T21:53:59;1013.9;;;22;72.3
45113;BME280;30873;53.908;27.576;2022-08-01T21:58:57;1013.9;;;22;72.3
45113;BME280;30873;53.908;27.576;2022-08-01T22:03:54;1013.9;;;22;72.4
45113;BME280;30873;53.908;27.576;2022-08-01T22:08:55;1013.9;;;22;72.2
45113;BME280;30873;53.908;27.576;2022-08-01T22:13:56;1013.9;;;21.9;72.5
45113;BME280;30873;53.908;27.576;2022-08-01T22:18:54;1013.9;;;21.9;72.7
45113;BME280;30873;53.908;27.576;2022-08-01T22:23:54;1013.9;;;21.9;72.6
45113;BME280;30873;53.908;27.576;2022-08-01T22:28:54;1014;;;21.9;72.6
45113;BME280;30873;53.908;27.576;2022-08-01T22:33:54;1014;;;21.8;72.7
45113;BME280;30873;53.908;27.576;2022-08-01T22:38:54;1014.1;;;21.6;73.3
45113;BME280;30873;53.908;27.576;2022-08-01T22:43:55;1014.1;;;21.6;73.6
45113;BME280;30873;53.908;27.576;2022-08-01T22:48:55;1014.2;;;21.6;74
45113;BME280;30873;53.908;27.576;2022-08-01T22:54:00;1014.2;;;21.6;73.6
45113;BME280;30873;53.908;27.576;2022-08-01T22:58:54;1014.2;;;21.5;74
45113;BME280;30873;53.908;27.576;2022-08-01T23:03:55;1014.2;;;21.5;74
45113;BME280;30873;53.908;27.576;2022-08-01T23:08:54;1014.2;;;21.5;74
45113;BME280;30873;53.908;27.576;2022-08-01T23:13:54;1014.2;;;21.4;74.3
45113;BME280;30873;53.908;27.576;2022-08-01T23:18:54;1014.3;;;21.4;74.3
45113;BME280;30873;53.908;27.576;2022-08-01T23:23:54;1014.2;;;21.5;74.3
45113;BME280;30873;53.908;27.576;2022-08-01T23:28:54;1014.2;;;21.5;74.3
45113;BME280;30873;53.908;27.576;2022-08-01T23:33:54;1014.1;;;21.6;74.2
45113;BME280;30873;53.908;27.576;2022-08-01T23:38:54;1014.1;;;21.6;74
45113;BME280;30873;53.908;27.576;2022-08-01T23:43:54;1014.1;;;21.7;73.6
45113;BME280;30873;53.908;27.576;2022-08-01T23:48:54;1014.1;;;21.6;73.9
45113;BME280;30873;53.908;27.576;2022-08-01T23:53:54;1014.1;;;21.4;74.4
45113;BME280;30873;53.908;27.576;2022-08-01T23:58:54;1014.1;;;21.3;74.9
